Latest Weather Observations for Tibooburra Airport

IDN60801

Issued at 12:32 pm EST Tuesday 25 April 2017 (issued every 30 minutes, with the page automatically refreshed every 10 minutes)

About weather observations | Map of weather stations | Latest weather observations for NSW | Other Formats
Station Details ID: 046126 Name: TIBOOBURRA AIRPORT Lat: -29.44 Lon: 142.06 Height: 176.4 m
Data from the previous 72 hours. | See also: Recent months at Tibooburra Airport
Date/Time
EST
Temp
°C
App
Temp
°C
Dew
Point
°C
Rel
Hum
%
Delta-T
°C
Wind Press
QNH
hPa
Press
MSL
hPa
Rain since
9am
mm
Dir  Spd
km/h
Gust
km/h
Spd
kts
Gust
kts
25/12:30pm 22.6 22.3 19.6 83 1.9 W 20 28 11 15 1014.0 1013.4 1.8
25/12:00pm 22.2 21.3 19.9 87 1.5 W 24 32 13 17 1014.3 1013.7 1.8
25/11:30am 21.8 22.7 21.6 99 0.1 WNW 19 22 10 12 1014.7 1014.1 1.8
25/11:00am 20.9 21.2 20.7 99 0.1 WNW 20 24 11 13 1014.9 1014.3 1.8
25/10:30am 20.2 20.1 20.0 99 0.1 WNW 20 26 11 14 1015.3 1014.7 1.8
25/10:00am 19.5 19.2 19.5 100 0.0 WNW 20 26 11 14 1015.1 1014.5 1.8
25/09:30am 18.9 19.3 18.9 100 0.0 WNW 15 20 8 11 1015.4 1014.8 1.4
25/09:00am 18.9 19.6 18.9 100 0.0 W 13 17 7 9 1015.3 1014.7 10.8
25/08:30am 18.5 17.9 18.5 100 0.0 WSW 19 24 10 13 1015.5 1014.9 10.2
25/08:00am 18.3 17.6 18.3 100 0.0 WSW 19 24 10 13 1015.3 1014.7 8.2
25/07:30am 18.4 17.6 18.4 100 0.0 SW 20 28 11 15 1014.6 1014.0 7.0
25/07:00am 18.3 17.6 18.3 100 0.0 SSW 19 24 10 13 1014.5 1013.9 5.6
25/06:30am 18.2 16.5 18.2 100 0.0 SSW 24 32 13 17 1014.6 1014.0 4.8
25/06:00am 18.1 15.3 18.1 100 0.0 SSW 30 39 16 21 1014.7 1014.1 3.6
25/05:30am 18.3 16.3 18.3 100 0.0 SSW 26 33 14 18 1014.3 1013.7 2.2
25/05:00am 18.3 18.0 18.3 100 0.0 S 17 22 9 12 1013.8 1013.2 1.6
25/04:30am 18.3 15.9 18.3 100 0.0 SSW 28 37 15 20 1014.6 1014.0 1.0
25/04:00am 18.9 14.6 18.7 99 0.1 SW 39 50 21 27 1014.8 1014.2 0.0
25/03:40am 20.0 17.5 18.8 93 0.8 SW 30 48 16 26 1013.9 1013.3 0.0
25/03:30am 20.1 17.5 19.6 97 0.3 SSW 32 43 17 23 1013.6 1013.0 0.0
25/03:00am 20.6 18.0 19.4 93 0.8 SW 32 46 17 25 1013.7 1013.1 0.0
25/02:54am 20.9 18.6 18.5 86 1.5 SW 28 39 15 21 1013.7 1013.1 0.0
25/02:30am 21.5 21.2 17.3 77 2.6 SW 15 19 8 10 1013.0 1012.4 0.0
25/02:00am 21.6 21.6 17.2 76 2.7 SSW 13 17 7 9 1012.9 1012.3 0.0
25/01:30am 21.8 21.2 16.7 73 3.1 SW 15 20 8 11 1013.3 1012.7 0.0
25/01:00am 22.2 22.4 15.8 67 3.9 SSW 9 11 5 6 1013.6 1013.0 0.0
25/12:30am 22.4 22.6 15.7 66 4.1 S 9 11 5 6 1013.7 1013.1 0.0
25/12:00am 22.7 24.3 14.8 61 4.7 CALM 0 0 0 0 1013.8 1013.2 0.0
 
Date/Time
EST
Temp
°C
App
Temp
°C
Dew
Point
°C
Rel
Hum
%
Delta-T
°C
Wind Press
QNH
hPa
Press
MSL
hPa
Rain since
9am
mm
Dir  Spd
km/h
Gust
km/h
Spd
kts
Gust
kts
24/11:30pm 23.0 23.2 14.6 59 5.0 S 7 9 4 5 1014.2 1013.6 0.0
24/11:00pm 23.2 23.0 14.7 58 5.1 S 9 15 5 8 1014.4 1013.8 0.0
24/10:30pm 23.6 22.4 14.0 55 5.7 SSW 13 17 7 9 1015.0 1014.4 0.0
24/10:00pm 24.0 21.9 13.5 52 6.2 SSW 17 22 9 12 1014.9 1014.3 0.0
24/09:30pm 24.7 22.2 12.3 46 7.2 SW 17 30 9 16 1015.2 1014.6 0.0
24/09:00pm 24.9 24.0 11.5 43 7.6 NNE 7 9 4 5 1014.9 1014.3 0.0
24/08:30pm 25.2 23.7 10.6 40 8.2 NE 9 11 5 6 1014.9 1014.3 0.0
24/08:00pm 25.4 23.8 10.1 38 8.5 NE 9 9 5 5 1014.8 1014.2 0.0
24/07:30pm 26.3 26.2 9.6 35 9.3 CALM 0 0 0 0 1014.7 1014.1 0.0
24/07:00pm 26.8 25.5 9.2 33 9.7 NW 6 6 3 3 1014.7 1014.1 0.0
24/06:30pm 27.6 26.6 9.0 31 10.3 NW 4 7 2 4 1014.5 1013.9 0.0
24/06:00pm 28.7 27.0 8.4 28 11.2 NW 7 9 4 5 1014.3 1013.7 0.0
24/05:30pm 29.0 27.6 8.7 28 11.3 NNW 6 7 3 4 1014.2 1013.6 0.0
24/05:00pm 29.2 27.2 8.8 28 11.3 W 9 15 5 8 1014.2 1013.6 0.0
24/04:30pm 29.7 28.4 9.3 28 11.5 E 6 11 3 6 1014.2 1013.6 0.0
24/04:00pm 29.7 27.3 8.7 27 11.7 NW 11 19 6 10 1014.4 1013.8 0.0
24/03:30pm 29.9 27.7 9.4 28 11.6 W 11 20 6 11 1014.5 1013.9 0.0
24/03:00pm 29.6 27.0 9.2 28 11.4 NW 13 22 7 12 1014.8 1014.2 0.0
24/02:30pm 30.0 29.2 9.5 28 11.6 W 4 13 2 7 1014.8 1014.2 0.0
24/02:00pm 29.4 27.7 10.0 30 11.0 NNW 9 15 5 8 1015.4 1014.8 0.0
24/01:30pm 28.2 25.5 10.4 33 10.1 N 15 26 8 14 1015.8 1015.2 0.0
24/01:00pm 29.1 27.9 11.6 33 10.2 NW 9 15 5 8 1016.4 1015.7 0.0
24/12:30pm 28.4 26.4 11.5 35 9.8 N 13 22 7 12 1016.9 1016.2 0.0
24/12:00pm 27.9 25.8 12.3 38 9.1 NNE 15 20 8 11 1017.5 1016.9 0.0
24/11:30am 27.4 25.0 12.6 40 8.7 N 17 20 9 11 1018.1 1017.5 0.0
24/11:00am 26.0 23.9 13.5 46 7.4 NNE 17 20 9 11 1018.6 1018.0 0.0
24/10:30am 24.6 22.8 14.4 53 6.1 NNE 17 22 9 12 1018.9 1018.3 0.0
24/10:00am 23.8 22.7 15.3 59 5.1 NNE 15 20 8 11 1019.2 1018.6 0.0
24/09:30am 22.0 21.3 16.5 71 3.4 NNE 15 19 8 10 1019.2 1018.6 0.0
24/09:00am 20.4 20.7 17.8 85 1.6 NE 13 17 7 9 1019.3 1018.7 0.4
24/08:30am 19.2 19.6 17.3 89 1.2 ENE 11 15 6 8 1019.0 1018.4 0.4
24/08:00am 17.5 18.5 16.9 96 0.4 ENE 7 9 4 5 1018.9 1018.3 0.4
24/07:30am 17.0 17.6 16.8 99 0.1 NE 9 11 5 6 1018.8 1018.2 0.4
24/07:00am 16.2 16.5 16.0 99 0.1 NE 9 11 5 6 1018.8 1018.2 0.4
24/06:30am 15.7 15.8 15.5 99 0.1 ENE 9 11 5 6 1018.7 1018.1 0.4
24/06:00am 16.0 15.8 15.8 99 0.1 ENE 11 11 6 6 1018.5 1017.9 0.4
24/05:30am 16.5 16.4 16.0 97 0.3 ENE 11 13 6 7 1018.5 1017.9 0.4
24/05:00am 16.6 16.5 16.1 97 0.3 NE 11 13 6 7 1018.3 1017.7 0.4
24/04:30am 16.5 17.2 16.0 97 0.3 E 7 9 4 5 1018.3 1017.7 0.4
24/04:00am 16.7 17.4 16.1 96 0.4 E 7 9 4 5 1018.3 1017.7 0.4
24/03:30am 17.2 17.2 16.2 94 0.6 ENE 11 13 6 7 1018.3 1017.7 0.4
24/03:00am 17.4 17.8 16.3 93 0.7 ENE 9 11 5 6 1018.7 1018.1 0.4
24/02:30am 17.9 18.6 16.2 90 1.0 ENE 7 9 4 5 1018.9 1018.3 0.4
24/02:00am 18.7 18.7 16.3 86 1.4 NE 11 13 6 7 1019.0 1018.4 0.4
24/01:30am 19.2 19.2 16.2 83 1.8 NNE 11 13 6 7 1019.2 1018.6 0.4
24/01:00am 19.3 19.4 16.5 84 1.7 NNE 11 13 6 7 1019.5 1018.9 0.4
24/12:30am 18.9 19.2 17.0 89 1.2 NE 11 13 6 7 1019.6 1019.0 0.4
24/12:00am 19.3 19.2 17.8 91 0.9 ENE 15 17 8 9 1019.6 1019.0 0.4
 
Date/Time
EST
Temp
°C
App
Temp
°C
Dew
Point
°C
Rel
Hum
%
Delta-T
°C
Wind Press
QNH
hPa
Press
MSL
hPa
Rain since
9am
mm
Dir  Spd
km/h
Gust
km/h
Spd
kts
Gust
kts
23/11:30pm 20.0 20.3 17.8 87 1.4 E 13 17 7 9 1019.7 1019.1 0.4
23/11:00pm 20.1 21.9 18.2 89 1.2 ESE 6 7 3 4 1019.9 1019.3 0.4
23/10:30pm 20.8 22.2 18.6 87 1.4 SE 9 11 5 6 1020.0 1019.4 0.4
23/10:00pm 21.0 23.0 19.1 89 1.2 SE 7 9 4 5 1020.2 1019.6 0.4
23/09:30pm 21.2 23.4 19.3 89 1.2 ESE 6 7 3 4 1020.2 1019.6 0.4
23/09:00pm 21.7 24.8 18.7 83 1.9 CALM 0 0 0 0 1020.4 1019.8 0.4
23/08:30pm 22.1 24.5 18.9 82 2.0 WNW 4 7 2 4 1020.2 1019.6 0.4
23/08:00pm 22.6 23.5 17.5 73 3.2 E 9 15 5 8 1019.9 1019.3 0.4
23/07:30pm 22.7 25.0 17.8 74 3.1 E 2 6 1 3 1019.8 1019.2 0.4
23/07:00pm 21.8 23.3 18.8 83 1.9 E 9 11 5 6 1019.5 1018.9 0.4
23/06:30pm 21.6 22.2 18.6 83 1.9 SE 13 19 7 10 1019.3 1018.7 0.4
23/06:00pm 22.2 23.0 19.0 82 2.0 SSE 13 19 7 10 1019.0 1018.4 0.4
23/05:30pm 25.5 23.6 13.0 46 7.3 S 15 30 8 16 1018.7 1018.1 0.0
23/05:00pm 26.7 25.1 11.6 39 8.7 SE 11 17 6 9 1018.4 1017.8 0.0
23/04:30pm 27.3 26.0 11.3 37 9.2 SE 9 15 5 8 1018.2 1017.6 0.0
23/04:00pm 28.2 26.9 11.3 35 9.7 ENE 9 17 5 9 1018.1 1017.5 0.0
23/03:30pm 27.7 26.5 11.7 37 9.3 ENE 9 13 5 7 1018.2 1017.6 0.0
23/03:00pm 27.4 27.6 11.8 38 9.0 NW 2 9 1 5 1018.4 1017.8 0.0
23/02:30pm 26.8 26.8 12.5 41 8.4 N 4 7 2 4 1018.6 1018.0 0.0
23/02:00pm 26.9 25.9 12.2 40 8.5 E 9 13 5 7 1018.8 1018.2 0.0
23/01:30pm 26.7 25.8 12.7 42 8.2 NE 9 15 5 8 1019.2 1018.6 0.0
23/01:00pm 27.0 27.0 13.7 44 7.9 S 6 11 3 6 1019.7 1019.1 0.0
23/12:30pm 25.6 25.2 14.1 49 6.9 NNE 9 15 5 8 1020.3 1019.7 0.0
23/12:00pm 25.2 24.6 14.6 51 6.4 NE 11 17 6 9 1020.7 1020.1 0.0
23/11:30am 24.5 23.8 15.4 57 5.5 NE 13 17 7 9 1021.2 1020.6 0.0
23/11:00am 24.1 24.0 16.9 64 4.5 ENE 13 20 7 11 1021.5 1020.9 0.0
23/10:30am 23.5 23.2 16.5 65 4.3 ENE 13 20 7 11 1021.6 1021.0 0.0
23/10:00am 21.8 22.1 17.8 78 2.5 ENE 13 17 7 9 1021.7 1021.1 0.0
23/09:30am 21.0 22.5 18.8 87 1.4 E 9 11 5 6 1021.9 1021.3 0.0
23/09:00am 20.2 21.7 19.0 93 0.8 E 9 11 5 6 1021.8 1021.2 0.0
23/08:30am 18.5 21.1 18.3 99 0.1 SE 2 9 1 5 1021.4 1020.8 0.0
23/08:00am 16.7 18.2 16.7 100 0.0 S 4 7 2 4 1021.3 1020.7 0.0
23/07:30am 15.8 16.6 15.8 100 0.0 SSE 6 9 3 5 1020.9 1020.3 0.0
23/07:00am 15.4 16.0 15.4 100 0.0 SSW 6 7 3 4 1020.8 1020.2 0.0
23/06:30am 15.7 15.9 15.7 100 0.0 WSW 9 9 5 5 1020.7 1020.1 0.0
23/06:00am 16.0 16.3 16.0 100 0.0 SSW 9 11 5 6 1020.4 1019.8 0.0
23/05:30am 16.1 16.8 16.1 100 0.0 S 7 9 4 5 1020.1 1019.5 0.0
23/05:00am 16.7 17.6 16.5 99 0.1 SE 7 11 4 6 1019.9 1019.3 0.0
23/04:30am 16.8 17.7 16.6 99 0.1 SSE 7 9 4 5 1020.0 1019.4 0.0
23/04:00am 17.0 17.6 16.8 99 0.1 SSE 9 11 5 6 1020.0 1019.4 0.0
23/03:30am 17.4 18.2 17.2 99 0.1 SE 9 11 5 6 1020.1 1019.5 0.0
23/03:00am 17.7 18.2 17.5 99 0.1 SSE 11 11 6 6 1020.3 1019.7 0.0
23/02:30am 17.5 18.7 17.3 99 0.1 SSE 7 11 4 6 1020.4 1019.8 0.0
23/02:00am 17.7 18.2 17.5 99 0.1 S 11 15 6 8 1020.5 1019.9 0.0
23/01:30am 17.8 18.0 17.6 99 0.1 SE 13 15 7 8 1020.6 1020.0 0.0
23/01:00am 17.7 18.5 17.4 98 0.2 SE 9 11 5 6 1020.9 1020.3 0.0
23/12:30am 18.2 19.2 17.7 97 0.3 SSE 9 13 5 7 1021.0 1020.4 0.0
23/12:00am 18.5 19.5 17.7 95 0.5 SE 9 11 5 6 1021.1 1020.5 0.0
 
Date/Time
EST
Temp
°C
App
Temp
°C
Dew
Point
°C
Rel
Hum
%
Delta-T
°C
Wind Press
QNH
hPa
Press
MSL
hPa
Rain since
9am
mm
Dir  Spd
km/h
Gust
km/h
Spd
kts
Gust
kts
22/11:30pm 18.6 19.5 17.6 94 0.6 SSE 9 13 5 7 1021.2 1020.6 0.0
22/11:00pm 18.9 19.5 17.6 92 0.8 SSE 11 13 6 7 1021.5 1020.9 0.0
22/10:30pm 19.1 19.7 17.6 91 0.9 S 11 15 6 8 1021.6 1021.0 0.0
22/10:00pm 19.6 19.5 17.0 85 1.6 SSE 13 17 7 9 1021.7 1021.1 0.0
22/09:30pm 19.9 20.8 17.5 86 1.5 SSE 9 11 5 6 1021.7 1021.1 0.0
22/09:00pm 19.9 20.4 17.5 86 1.5 SSE 11 15 6 8 1021.5 1020.9 0.0
22/08:30pm 20.2 20.0 17.6 85 1.6 SSE 15 20 8 11 1021.3 1020.7 0.0
22/08:00pm 20.5 21.0 18.3 87 1.4 SSE 13 17 7 9 1021.1 1020.5 0.0
22/07:30pm 21.0 21.3 18.0 83 1.9 SE 13 19 7 10 1020.7 1020.1 0.0
22/07:00pm 21.2 21.7 18.4 84 1.8 SE 13 17 7 9 1020.4 1019.8 0.0
22/06:30pm 21.6 21.9 17.0 75 2.8 SE 11 15 6 8 1020.4 1019.8 0.0
22/06:00pm 22.7 22.0 15.3 63 4.4 SSE 13 17 7 9 1020.1 1019.5 0.0
22/05:30pm 23.3 22.0 13.8 55 5.6 SE 13 17 7 9 1020.0 1019.4 0.0
22/05:00pm 23.5 21.8 13.7 54 5.7 SSE 15 20 8 11 1019.9 1019.3 0.0
22/04:30pm 23.8 21.9 14.2 55 5.7 SSE 17 20 9 11 1019.6 1019.0 0.0
22/04:00pm 23.9 21.5 13.7 53 6.0 SSE 19 26 10 14 1019.5 1018.9 0.0
22/03:30pm 24.0 21.6 13.8 53 6.0 SSE 19 22 10 12 1019.5 1018.9 0.0
22/03:00pm 24.4 21.9 13.6 51 6.3 SE 19 24 10 13 1019.4 1018.8 0.0
22/02:30pm 24.6 22.5 13.5 50 6.5 SE 17 24 9 13 1019.6 1019.0 0.0
22/02:00pm 24.7 22.1 13.3 49 6.7 SE 19 26 10 14 1019.8 1019.2 0.0
22/01:30pm 24.6 21.8 12.5 46 7.0 SE 19 28 10 15 1020.0 1019.4 0.0
22/01:00pm 24.4 21.2 12.0 46 7.1 ESE 20 30 11 16 1020.3 1019.7 0.0

Other Formats:

Comma delimited format used in spreadsheet applications
http://www.bom.gov.au/fwo/IDN60801/IDN60801.95485.axf

JavaScript Object Notation format (JSON) in row-major order
http://www.bom.gov.au/fwo/IDN60801/IDN60801.95485.json